createdAt,value
2018-05-16T00:00:33.674Z,1004.21
2018-05-16T00:01:14.122Z,1004.21
2018-05-16T00:01:54.588Z,1004.22
2018-05-16T00:02:34.991Z,1004.19
2018-05-16T00:03:15.387Z,1004.2
2018-05-16T00:03:55.927Z,1004.23
2018-05-16T00:04:36.590Z,1004.23
2018-05-16T00:05:17.148Z,1004.25
2018-05-16T00:05:57.400Z,1004.25
2018-05-16T00:06:37.790Z,1004.23
2018-05-16T00:07:18.267Z,1004.19
2018-05-16T00:07:58.935Z,1004.23
2018-05-16T00:08:39.330Z,1004.24
2018-05-16T00:09:19.683Z,1004.25
2018-05-16T00:10:00.988Z,1004.26
2018-05-16T00:10:45.934Z,1004.26
2018-05-16T00:11:28.740Z,1004.26
2018-05-16T00:12:07.903Z,1004.3
2018-05-16T00:12:50.190Z,1004.31
2018-05-16T00:13:30.674Z,1004.28
2018-05-16T00:14:11.114Z,1004.25
2018-05-16T00:14:51.497Z,1004.23
2018-05-16T00:15:32.001Z,1004.28
2018-05-16T00:16:12.717Z,1004.25
2018-05-16T00:16:53.150Z,1004.22
2018-05-16T00:17:33.859Z,1004.23
2018-05-16T00:18:14.115Z,1004.26
2018-05-16T00:18:54.900Z,1004.25
2018-05-16T00:19:35.377Z,1004.27
2018-05-16T00:20:16.246Z,1004.27
2018-05-16T00:20:56.601Z,1004.25
2018-05-16T00:21:39.383Z,1004.28
2018-05-16T00:22:20.106Z,1004.3
2018-05-16T00:23:00.458Z,1004.31
2018-05-16T00:23:40.915Z,1004.29
2018-05-16T00:24:21.367Z,1004.25
2018-05-16T00:25:01.642Z,1004.27
2018-05-16T00:25:42.604Z,1004.26
2018-05-16T00:26:23.448Z,1004.24
2018-05-16T00:27:04.007Z,1004.23
2018-05-16T00:27:44.414Z,1004.29
2018-05-16T00:28:24.840Z,1004.28
2018-05-16T00:29:05.229Z,1004.28
2018-05-16T00:29:45.623Z,1004.32
2018-05-16T00:30:26.099Z,1004.3
2018-05-16T00:31:06.679Z,1004.32
2018-05-16T00:31:47.132Z,1004.32
2018-05-16T00:32:27.677Z,1004.3
2018-05-16T00:33:08.097Z,1004.3
2018-05-16T00:33:48.485Z,1004.3
2018-05-16T00:34:29.561Z,1004.33
2018-05-16T00:35:09.518Z,1004.34
2018-05-16T00:35:51.029Z,1004.31
2018-05-16T00:36:32.292Z,1004.34
2018-05-16T00:37:12.217Z,1004.29
2018-05-16T00:37:52.617Z,1004.28
2018-05-16T00:38:33.284Z,1004.26
2018-05-16T00:39:15.253Z,1004.22
2018-05-16T00:39:56.775Z,1004.27
2018-05-16T00:40:37.363Z,1004.27
2018-05-16T00:41:17.632Z,1004.26
2018-05-16T00:41:58.094Z,1004.22
2018-05-16T00:42:39.314Z,1004.21
2018-05-16T00:43:19.742Z,1004.21
2018-05-16T00:44:00.551Z,1004.14
2018-05-16T00:44:41.204Z,1004.19
2018-05-16T00:45:21.588Z,1004.19
2018-05-16T00:48:02.754Z,1004.21
2018-05-16T00:48:45.053Z,1004.25
2018-05-16T00:49:26.583Z,1004.25
2018-05-16T00:50:05.970Z,1004.23
2018-05-16T00:50:46.378Z,1004.24
2018-05-16T00:51:27.481Z,1004.23
2018-05-16T00:52:08.162Z,1004.23
2018-05-16T00:52:48.643Z,1004.21
2018-05-16T00:53:29.314Z,1004.25
2018-05-16T00:54:11.268Z,1004.24
2018-05-16T00:54:59.430Z,1004.27
2018-05-16T00:55:40.277Z,1004.22
2018-05-16T00:56:22.004Z,1004.25
2018-05-16T00:57:02.483Z,1004.21
2018-05-16T00:57:47.322Z,1004.23
2018-05-16T00:58:27.968Z,1004.21
2018-05-16T00:59:11.560Z,1004.22
2018-05-16T00:59:53.991Z,1004.21
2018-05-16T01:00:36.344Z,1004.24
2018-05-16T01:02:40.643Z,1004.27
2018-05-16T01:03:21.087Z,1004.25
2018-05-16T01:04:01.793Z,1004.27
2018-05-16T01:04:42.369Z,1004.26
2018-05-16T01:05:28.721Z,1004.26
2018-05-16T01:06:09.246Z,1004.27
2018-05-16T01:06:56.457Z,1004.26
2018-05-16T01:07:39.402Z,1004.21
2018-05-16T01:08:20.814Z,1004.25
2018-05-16T01:09:03.493Z,1004.27
2018-05-16T01:09:46.806Z,1004.28
2018-05-16T01:10:28.607Z,1004.25
2018-05-16T01:16:16.504Z,1004.24
2018-05-16T01:18:19.274Z,1004.16
2018-05-16T01:19:01.836Z,1004.16
2018-05-16T01:19:42.297Z,1004.15
2018-05-16T01:20:22.700Z,1004.15
2018-05-16T01:21:03.362Z,1004.14
2018-05-16T01:21:43.779Z,1004.16
2018-05-16T01:22:24.369Z,1004.15
2018-05-16T01:23:04.777Z,1004.17
2018-05-16T01:23:45.206Z,1004.16
2018-05-16T01:24:25.670Z,1004.16
2018-05-16T01:25:08.435Z,1004.17
2018-05-16T01:25:48.945Z,1004.17
2018-05-16T01:26:29.387Z,1004.14
2018-05-16T01:27:10.107Z,1004.15
2018-05-16T01:27:50.408Z,1004.19
2018-05-16T01:28:30.999Z,1004.23
2018-05-16T01:29:11.438Z,1004.28
2018-05-16T01:29:51.806Z,1004.31
2018-05-16T01:30:32.181Z,1004.3
2018-05-16T01:31:13.338Z,1004.35
2018-05-16T01:31:54.489Z,1004.33
2018-05-16T01:32:46.139Z,1004.34
2018-05-16T01:33:29.314Z,1004.31
2018-05-16T01:34:14.270Z,1004.36
2018-05-16T01:34:54.716Z,1004.36
2018-05-16T01:35:35.301Z,1004.35
2018-05-16T01:36:21.989Z,1004.35
2018-05-16T01:37:02.508Z,1004.35
2018-05-16T01:37:43.195Z,1004.33
2018-05-16T01:38:26.566Z,1004.32
2018-05-16T01:39:07.738Z,1004.34
2018-05-16T01:41:44.207Z,1004.39
2018-05-16T01:42:47.816Z,1004.39
2018-05-16T01:43:27.772Z,1004.41
2018-05-16T01:44:08.244Z,1004.43
2018-05-16T01:44:48.687Z,1004.46
2018-05-16T01:45:29.033Z,1004.46
2018-05-16T01:46:09.426Z,1004.48
2018-05-16T01:46:49.880Z,1004.5
2018-05-16T01:47:31.331Z,1004.53
2018-05-16T01:48:11.233Z,1004.53
2018-05-16T01:48:51.730Z,1004.55
2018-05-16T01:49:33.953Z,1004.6
2018-05-16T01:50:16.113Z,1004.73
2018-05-16T01:51:00.896Z,1004.79
2018-05-16T01:51:43.373Z,1004.77
2018-05-16T01:52:27.376Z,1004.74
2018-05-16T01:53:07.859Z,1004.77
2018-05-16T01:53:48.257Z,1004.77
2018-05-16T01:54:28.772Z,1004.77
2018-05-16T01:55:09.165Z,1004.78
2018-05-16T01:55:54.081Z,1004.87
2018-05-16T01:56:37.438Z,1004.85
2018-05-16T01:57:17.831Z,1004.86
2018-05-16T01:57:58.258Z,1004.86
2018-05-16T01:58:38.785Z,1004.85
2018-05-16T01:59:21.058Z,1004.82
2018-05-16T02:00:01.476Z,1004.82
2018-05-16T02:00:43.570Z,1004.85
2018-05-16T02:01:24.025Z,1004.87
2018-05-16T02:02:04.470Z,1004.94
2018-05-16T02:02:44.928Z,1004.93
2018-05-16T02:03:25.335Z,1004.97
2018-05-16T02:04:09.089Z,1004.94
2018-05-16T02:04:49.255Z,1004.95
2018-05-16T02:07:13.004Z,1005.02
2018-05-16T02:12:21.535Z,1005.13
2018-05-16T02:13:10.422Z,1005.12
2018-05-16T02:15:47.259Z,1005.11
2018-05-16T02:16:30.712Z,1005.12
2018-05-16T02:17:11.088Z,1005.13
2018-05-16T02:17:51.804Z,1005.14
2018-05-16T02:18:32.138Z,1005.13
2018-05-16T02:19:12.789Z,1005.17
2018-05-16T02:19:53.060Z,1005.22
2018-05-16T02:20:33.540Z,1005.25
2018-05-16T02:21:14.049Z,1005.28
2018-05-16T02:21:54.619Z,1005.3
2018-05-16T02:22:42.531Z,1005.31
2018-05-16T02:23:19.268Z,1005.3
2018-05-16T02:23:59.716Z,1005.29
2018-05-16T02:24:41.145Z,1005.28
2018-05-16T02:25:23.850Z,1005.33
2018-05-16T02:26:04.772Z,1005.29
2018-05-16T02:26:48.297Z,1005.26
2018-05-16T02:27:47.158Z,1005.31
2018-05-16T02:28:31.329Z,1005.33
2018-05-16T02:29:12.321Z,1005.29
2018-05-16T02:29:52.774Z,1005.29
2018-05-16T02:30:33.908Z,1005.29
2018-05-16T02:31:18.810Z,1005.31
2018-05-16T03:47:08.187Z,1004.81
2018-05-16T03:47:48.575Z,1004.77
2018-05-16T03:48:28.925Z,1004.83
2018-05-16T03:49:09.343Z,1004.8
2018-05-16T03:49:49.732Z,1004.81
2018-05-16T03:50:30.144Z,1004.83
2018-05-16T03:51:10.582Z,1004.8
2018-05-16T03:51:50.980Z,1004.83
2018-05-16T03:52:31.353Z,1004.83
2018-05-16T03:53:11.770Z,1004.82
2018-05-16T03:53:52.150Z,1004.83
2018-05-16T03:54:32.579Z,1004.86
2018-05-16T03:55:12.989Z,1004.84
2018-05-16T03:55:53.428Z,1004.87
2018-05-16T04:01:43.852Z,1004.84
2018-05-16T04:02:24.223Z,1004.78
2018-05-16T04:03:04.658Z,1004.76
2018-05-16T04:41:36.614Z,1005.16
2018-05-16T04:42:17.017Z,1005.18
2018-05-16T04:44:29.900Z,1005.17
2018-05-16T04:46:58.974Z,1005.23
2018-05-16T04:47:39.417Z,1005.24
2018-05-16T04:48:19.747Z,1005.2
2018-05-16T04:49:00.197Z,1005.21
2018-05-16T05:00:48.683Z,1005.4
2018-05-16T05:01:29.080Z,1005.42
2018-05-16T05:02:09.509Z,1005.41
2018-05-16T05:02:49.900Z,1005.45
2018-05-16T05:03:30.279Z,1005.5
2018-05-16T05:04:10.739Z,1005.48
2018-05-16T05:04:51.088Z,1005.51
2018-05-16T05:05:31.473Z,1005.53
2018-05-16T05:06:11.857Z,1005.52
2018-05-16T05:06:52.284Z,1005.55
2018-05-16T05:07:32.655Z,1005.57
2018-05-16T05:08:13.061Z,1005.59
2018-05-16T05:08:53.603Z,1005.63
2018-05-16T05:09:33.897Z,1005.68
2018-05-16T05:10:14.338Z,1005.62
2018-05-16T05:10:54.721Z,1005.64
2018-05-16T05:11:35.087Z,1005.65
2018-05-16T05:12:15.548Z,1005.65
2018-05-16T05:12:55.965Z,1005.66
2018-05-16T05:13:36.353Z,1005.67
2018-05-16T05:14:16.731Z,1005.69
2018-05-16T05:14:57.216Z,1005.65
2018-05-16T05:15:37.550Z,1005.68
2018-05-16T05:16:17.940Z,1005.69
2018-05-16T05:16:58.332Z,1005.74
2018-05-16T05:17:38.774Z,1005.73
2018-05-16T05:18:19.179Z,1005.76
2018-05-16T05:18:59.541Z,1005.78
2018-05-16T05:19:39.931Z,1005.79
2018-05-16T05:20:20.342Z,1005.81
2018-05-16T05:21:00.760Z,1005.81
2018-05-16T05:21:41.139Z,1005.82
2018-05-16T05:22:21.616Z,1005.75
2018-05-16T05:23:02.058Z,1005.77
2018-05-16T05:23:42.479Z,1005.84
2018-05-16T05:24:22.842Z,1005.86
2018-05-16T05:25:03.279Z,1005.87
2018-05-16T05:25:43.656Z,1005.88
2018-05-16T05:26:24.088Z,1005.86
2018-05-16T05:27:04.562Z,1005.89
2018-05-16T05:27:59.681Z,1005.83
2018-05-16T05:28:40.089Z,1005.82
2018-05-16T05:29:20.570Z,1005.84
2018-05-16T05:30:00.968Z,1005.8
2018-05-16T05:30:41.368Z,1005.8
2018-05-16T05:31:21.733Z,1005.82
2018-05-16T05:32:02.196Z,1005.77
2018-05-16T05:32:42.574Z,1005.82
2018-05-16T05:33:23.002Z,1005.84
2018-05-16T05:34:03.408Z,1005.84
2018-05-16T05:34:43.803Z,1005.88
2018-05-16T05:35:24.199Z,1005.88
2018-05-16T05:36:04.572Z,1005.89
2018-05-16T05:36:45.113Z,1005.86
2018-05-16T05:37:25.456Z,1005.86
2018-05-16T05:38:05.906Z,1005.86
2018-05-16T05:38:46.294Z,1005.84
2018-05-16T05:39:26.701Z,1005.87
2018-05-16T05:40:07.104Z,1005.89
2018-05-16T05:40:47.494Z,1005.87
2018-05-16T05:41:27.944Z,1005.92
2018-05-16T05:42:08.428Z,1005.92
2018-05-16T05:42:48.896Z,1005.92
2018-05-16T05:43:29.386Z,1005.88
2018-05-16T05:44:09.668Z,1005.89
2018-05-16T05:44:50.114Z,1005.91
2018-05-16T05:45:30.489Z,1005.89
2018-05-16T05:46:10.957Z,1005.93
2018-05-16T05:46:52.611Z,1005.92
2018-05-16T05:47:32.062Z,1005.92
2018-05-16T05:48:12.554Z,1005.95
2018-05-16T05:48:52.907Z,1005.98
2018-05-16T05:49:33.462Z,1005.95
2018-05-16T05:50:13.856Z,1005.94
2018-05-16T05:50:54.251Z,1005.99
2018-05-16T05:51:34.676Z,1006.02
2018-05-16T05:52:15.141Z,1005.99
2018-05-16T05:52:55.570Z,1006.02
2018-05-16T05:55:08.642Z,1005.97
2018-05-16T05:55:49.085Z,1006.02
2018-05-16T05:56:29.561Z,1006.01
2018-05-16T05:57:09.932Z,1005.98
2018-05-16T05:57:50.322Z,1006.03
2018-05-16T05:58:30.722Z,1006
2018-05-16T05:59:11.156Z,1006.03
2018-05-16T05:59:51.508Z,1006
2018-05-16T06:00:32.127Z,1006.04
2018-05-16T06:01:12.581Z,1006.04
2018-05-16T06:01:53.009Z,1006.05
2018-05-16T06:02:33.518Z,1006.04
2018-05-16T06:03:13.884Z,1006.08
2018-05-16T06:03:54.313Z,1006.05
2018-05-16T06:04:34.792Z,1006.02
2018-05-16T06:05:15.235Z,1006.04
2018-05-16T06:05:55.603Z,1006.1
2018-05-16T06:06:36.057Z,1006.07
2018-05-16T06:07:16.447Z,1006.08
2018-05-16T06:07:56.936Z,1006.1
2018-05-16T06:08:37.321Z,1006.12
2018-05-16T06:09:17.781Z,1006.1
2018-05-16T06:09:58.190Z,1006.12
2018-05-16T06:10:38.645Z,1006.13
2018-05-16T06:11:19.041Z,1006.13
2018-05-16T06:11:59.373Z,1006.16
2018-05-16T06:12:39.851Z,1006.16
2018-05-16T06:13:20.241Z,1006.13
2018-05-16T06:14:00.671Z,1006.12
2018-05-16T06:14:41.155Z,1006.17
2018-05-16T06:15:21.542Z,1006.19
2018-05-16T06:16:03.126Z,1006.17
2018-05-16T06:16:43.496Z,1006.17
2018-05-16T06:17:23.901Z,1006.2
2018-05-16T06:18:04.336Z,1006.16
2018-05-16T06:18:44.803Z,1006.19
2018-05-16T06:19:25.268Z,1006.2
2018-05-16T06:20:05.658Z,1006.18
2018-05-16T06:20:46.322Z,1006.2
2018-05-16T06:21:26.764Z,1006.24
2018-05-16T06:22:07.227Z,1006.23
2018-05-16T06:22:47.621Z,1006.23
2018-05-16T06:23:28.052Z,1006.25
2018-05-16T06:24:08.482Z,1006.18
2018-05-16T06:24:48.869Z,1006.21
2018-05-16T06:25:29.381Z,1006.21
2018-05-16T06:26:09.786Z,1006.15
2018-05-16T06:26:50.248Z,1006.19
2018-05-16T06:27:30.626Z,1006.19
2018-05-16T06:28:11.087Z,1006.18
2018-05-16T06:28:51.537Z,1006.18
2018-05-16T06:29:31.976Z,1006.15
2018-05-16T06:30:12.339Z,1006.2
2018-05-16T06:30:52.860Z,1006.17
2018-05-16T06:31:33.300Z,1006.19
2018-05-16T06:32:13.705Z,1006.13
2018-05-16T06:32:54.132Z,1006.16
2018-05-16T06:33:34.607Z,1006.17
2018-05-16T06:35:52.487Z,1006.17
2018-05-16T06:36:33.091Z,1006.19
2018-05-16T06:37:13.440Z,1006.18
2018-05-16T06:37:54.761Z,1006.19
2018-05-16T06:38:36.161Z,1006.19
2018-05-16T06:39:16.793Z,1006.19
2018-05-16T06:39:57.370Z,1006.19
2018-05-16T06:40:37.858Z,1006.2
2018-05-16T06:41:18.623Z,1006.15
2018-05-16T06:41:59.070Z,1006.12
2018-05-16T06:42:39.517Z,1006.1
2018-05-16T06:43:20.007Z,1006.14
2018-05-16T06:44:00.481Z,1006.13
2018-05-16T06:46:13.639Z,1006.18
2018-05-16T06:46:54.069Z,1006.14
2018-05-16T06:47:34.488Z,1006.11
2018-05-16T06:48:14.852Z,1006.16
2018-05-16T06:48:55.268Z,1006.16
2018-05-16T06:49:35.736Z,1006.19
2018-05-16T06:50:16.130Z,1006.2
2018-05-16T06:50:56.577Z,1006.21
2018-05-16T06:51:37.020Z,1006.24
2018-05-16T06:52:17.382Z,1006.23
2018-05-16T06:52:57.828Z,1006.21
2018-05-16T06:53:38.285Z,1006.23
2018-05-16T06:54:18.739Z,1006.22
2018-05-16T06:54:59.136Z,1006.23
2018-05-16T06:55:39.780Z,1006.19
2018-05-16T06:56:20.468Z,1006.22
2018-05-16T06:57:00.790Z,1006.21
2018-05-16T06:57:41.212Z,1006.22
2018-05-16T06:58:21.842Z,1006.24
2018-05-16T06:59:02.361Z,1006.21
2018-05-16T06:59:42.676Z,1006.24
2018-05-16T07:00:23.327Z,1006.22
2018-05-16T07:01:03.934Z,1006.17
2018-05-16T07:01:44.331Z,1006.2
2018-05-16T07:02:24.908Z,1006.18
2018-05-16T07:03:05.313Z,1006.15
2018-05-16T07:03:45.858Z,1006.16
2018-05-16T07:04:26.355Z,1006.17
2018-05-16T07:05:06.763Z,1006.09
2018-05-16T07:05:47.353Z,1006.11
2018-05-16T07:06:42.498Z,1006.13
2018-05-16T07:07:29.822Z,1006.12
2018-05-16T07:08:10.301Z,1006.1
2018-05-16T07:08:50.760Z,1006.11
2018-05-16T07:09:46.024Z,1006.15
2018-05-16T07:13:11.212Z,1006.19
2018-05-16T07:13:51.512Z,1006.2
2018-05-16T07:14:33.430Z,1006.21
2018-05-16T07:15:14.167Z,1006.24
2018-05-16T07:15:55.029Z,1006.25
2018-05-16T07:16:35.710Z,1006.22
2018-05-16T07:17:16.192Z,1006.24
2018-05-16T07:17:56.798Z,1006.24
2018-05-16T07:18:37.410Z,1006.26
2018-05-16T07:19:18.053Z,1006.26
2018-05-16T07:19:59.231Z,1006.27
2018-05-16T07:20:39.783Z,1006.29
2018-05-16T07:21:20.360Z,1006.29
2018-05-16T07:22:00.626Z,1006.32
2018-05-16T07:22:41.037Z,1006.32
2018-05-16T07:23:21.805Z,1006.32
2018-05-16T07:24:02.570Z,1006.36
2018-05-16T07:24:43.790Z,1006.35
2018-05-16T07:25:24.524Z,1006.34
2018-05-16T07:26:04.993Z,1006.35
2018-05-16T07:26:45.432Z,1006.36
2018-05-16T07:27:25.929Z,1006.36
2018-05-16T07:28:06.378Z,1006.37
2018-05-16T07:28:46.870Z,1006.43
2018-05-16T07:29:28.245Z,1006.35
2018-05-16T07:30:09.363Z,1006.4
2018-05-16T07:30:49.869Z,1006.36
2018-05-16T07:31:30.399Z,1006.36
2018-05-16T07:32:12.252Z,1006.37
2018-05-16T07:32:52.855Z,1006.36
2018-05-16T07:33:33.609Z,1006.33
2018-05-16T07:34:14.052Z,1006.31
2018-05-16T07:34:55.927Z,1006.29
2018-05-16T07:35:46.910Z,1006.32
2018-05-16T07:36:28.655Z,1006.36
2018-05-16T07:37:09.574Z,1006.31
2018-05-16T07:37:50.046Z,1006.31
2018-05-16T07:38:30.655Z,1006.31
2018-05-16T07:39:11.825Z,1006.34
2018-05-16T07:39:52.742Z,1006.32
2018-05-16T07:40:33.909Z,1006.36
2018-05-16T07:41:15.363Z,1006.35
2018-05-16T07:41:56.144Z,1006.41
2018-05-16T07:42:37.238Z,1006.38
2018-05-16T07:43:19.623Z,1006.4
2018-05-16T07:44:00.033Z,1006.41
2018-05-16T07:46:38.785Z,1006.42
2018-05-16T07:49:04.039Z,1006.45
2018-05-16T07:49:44.948Z,1006.49
2018-05-16T07:50:27.049Z,1006.48
2018-05-16T07:51:07.762Z,1006.49
2018-05-16T07:51:50.794Z,1006.48
2018-05-16T07:52:31.033Z,1006.47
2018-05-16T07:53:11.858Z,1006.48
2018-05-16T07:53:52.354Z,1006.46
2018-05-16T07:54:35.052Z,1006.52
2018-05-16T07:55:15.594Z,1006.46
2018-05-16T07:55:56.177Z,1006.48
2018-05-16T07:56:36.608Z,1006.45
2018-05-16T07:57:17.362Z,1006.44
2018-05-16T07:57:58.168Z,1006.48
2018-05-16T07:58:39.129Z,1006.49
2018-05-16T07:59:20.082Z,1006.51
2018-05-16T08:00:00.901Z,1006.53
2018-05-16T08:00:41.392Z,1006.54
2018-05-16T08:01:22.000Z,1006.52
2018-05-16T08:02:02.598Z,1006.54
2018-05-16T08:02:43.183Z,1006.53
2018-05-16T08:03:25.101Z,1006.5
2018-05-16T08:04:06.230Z,1006.52
2018-05-16T08:04:47.575Z,1006.51
2018-05-16T08:05:27.994Z,1006.52
2018-05-16T08:06:08.668Z,1006.6
2018-05-16T08:06:49.120Z,1006.57
2018-05-16T08:07:29.647Z,1006.59
2018-05-16T08:08:11.004Z,1006.58
2018-05-16T08:08:53.554Z,1006.56
2018-05-16T08:09:33.100Z,1006.59
2018-05-16T08:10:14.811Z,1006.56
2018-05-16T08:10:56.439Z,1006.6
2018-05-16T08:11:37.155Z,1006.56
2018-05-16T08:12:20.262Z,1006.6
2018-05-16T08:12:59.995Z,1006.57
2018-05-16T08:13:40.743Z,1006.58
2018-05-16T08:14:21.246Z,1006.57
2018-05-16T08:15:01.956Z,1006.58
2018-05-16T08:15:42.543Z,1006.55
2018-05-16T08:16:23.520Z,1006.55
2018-05-16T08:17:06.045Z,1006.55
2018-05-16T08:17:46.022Z,1006.56
2018-05-16T08:18:26.520Z,1006.55
2018-05-16T08:19:07.193Z,1006.55
2018-05-16T08:19:47.866Z,1006.57
2018-05-16T08:20:30.060Z,1006.58
2018-05-16T08:21:10.352Z,1006.53
2018-05-16T08:21:51.008Z,1006.5
2018-05-16T08:22:48.653Z,1006.52
2018-05-16T08:24:35.064Z,1006.53
2018-05-16T08:25:14.921Z,1006.56
2018-05-16T08:25:56.088Z,1006.57
2018-05-16T08:26:36.191Z,1006.6
2018-05-16T08:27:16.721Z,1006.57
2018-05-16T08:27:57.696Z,1006.58
2018-05-16T08:28:38.746Z,1006.61
2018-05-16T08:29:19.310Z,1006.62
2018-05-16T08:30:00.052Z,1006.58
2018-05-16T08:30:40.315Z,1006.59
2018-05-16T08:31:21.536Z,1006.59
2018-05-16T08:32:01.544Z,1006.57
2018-05-16T08:32:42.130Z,1006.6
2018-05-16T08:33:22.533Z,1006.58
2018-05-16T08:34:03.040Z,1006.57
2018-05-16T08:34:43.626Z,1006.55
2018-05-16T08:35:24.067Z,1006.55
2018-05-16T08:36:05.646Z,1006.61
2018-05-16T08:37:59.205Z,1006.67
2018-05-16T08:38:40.491Z,1006.69
2018-05-16T08:42:30.558Z,1006.69
2018-05-16T08:43:10.210Z,1006.66
2018-05-16T08:43:50.593Z,1006.7
2018-05-16T08:44:31.037Z,1006.7
2018-05-16T08:45:11.461Z,1006.68
2018-05-16T08:45:51.958Z,1006.66
2018-05-16T08:46:32.461Z,1006.62
2018-05-16T08:47:12.830Z,1006.65
2018-05-16T08:47:53.259Z,1006.64
2018-05-16T08:48:33.989Z,1006.65
2018-05-16T08:49:14.356Z,1006.69
2018-05-16T08:49:54.783Z,1006.66
2018-05-16T08:50:35.277Z,1006.64
2018-05-16T08:51:15.658Z,1006.62
2018-05-16T08:51:56.068Z,1006.67
2018-05-16T08:52:36.513Z,1006.63
2018-05-16T08:53:16.984Z,1006.64
2018-05-16T08:53:57.768Z,1006.58
2018-05-16T08:54:38.661Z,1006.62
2018-05-16T08:55:19.132Z,1006.61
2018-05-16T08:55:59.979Z,1006.62
2018-05-16T08:56:40.449Z,1006.61
2018-05-16T08:57:20.837Z,1006.64
2018-05-16T08:58:01.326Z,1006.62
2018-05-16T08:58:42.391Z,1006.63
2018-05-16T08:59:22.879Z,1006.65
2018-05-16T09:00:03.270Z,1006.6
2018-05-16T09:00:43.755Z,1006.7
2018-05-16T09:01:24.606Z,1006.67
2018-05-16T09:02:05.120Z,1006.66
2018-05-16T09:02:45.994Z,1006.69
2018-05-16T09:03:26.796Z,1006.72
2018-05-16T09:04:07.540Z,1006.72
2018-05-16T09:04:48.823Z,1006.69
2018-05-16T09:05:28.752Z,1006.68
2018-05-16T09:06:09.293Z,1006.66
2018-05-16T09:06:50.227Z,1006.72
2018-05-16T09:07:30.784Z,1006.68
2018-05-16T09:08:11.787Z,1006.65
2018-05-16T09:08:53.314Z,1006.74
2018-05-16T09:09:33.527Z,1006.72
2018-05-16T09:10:13.856Z,1006.72
2018-05-16T09:10:55.197Z,1006.75
2018-05-16T09:11:35.610Z,1006.75
2018-05-16T09:12:15.985Z,1006.78
2018-05-16T09:12:56.912Z,1006.76
2018-05-16T09:13:38.008Z,1006.79
2018-05-16T09:14:18.571Z,1006.76
2018-05-16T09:15:00.128Z,1006.8
2018-05-16T09:15:41.062Z,1006.79
2018-05-16T09:16:21.541Z,1006.78
2018-05-16T09:17:03.690Z,1006.76
2018-05-16T09:17:44.200Z,1006.76
2018-05-16T09:18:25.234Z,1006.78
2018-05-16T09:19:07.209Z,1006.75
2018-05-16T09:19:47.522Z,1006.78
2018-05-16T09:20:28.150Z,1006.83
2018-05-16T09:21:08.915Z,1006.79
2018-05-16T09:21:49.853Z,1006.81
2018-05-16T09:22:30.476Z,1006.76
2018-05-16T09:23:11.019Z,1006.76
2018-05-16T09:23:51.531Z,1006.78
2018-05-16T09:24:32.125Z,1006.76
2018-05-16T09:25:12.633Z,1006.75
2018-05-16T09:25:53.508Z,1006.75
2018-05-16T09:26:34.016Z,1006.74
2018-05-16T09:27:14.438Z,1006.74
2018-05-16T09:27:54.864Z,1006.73
2018-05-16T09:28:35.382Z,1006.75
2018-05-16T09:29:16.462Z,1006.73
2018-05-16T09:29:56.923Z,1006.69
2018-05-16T09:30:37.551Z,1006.72
2018-05-16T09:31:18.085Z,1006.68
2018-05-16T09:31:58.585Z,1006.75
2018-05-16T09:32:39.177Z,1006.75
2018-05-16T09:33:21.103Z,1006.71
2018-05-16T09:34:01.162Z,1006.73
2018-05-16T09:34:41.539Z,1006.74
2018-05-16T09:35:21.956Z,1006.73
2018-05-16T09:36:02.410Z,1006.78
2018-05-16T09:36:42.993Z,1006.78
2018-05-16T09:37:24.017Z,1006.76
2018-05-16T09:38:05.356Z,1006.8
2018-05-16T09:38:45.769Z,1006.78
2018-05-16T09:39:26.453Z,1006.78
2018-05-16T09:40:06.754Z,1006.74
2018-05-16T09:40:47.314Z,1006.79
2018-05-16T09:41:27.866Z,1006.8
2018-05-16T09:42:08.316Z,1006.82
2018-05-16T09:42:48.744Z,1006.8
2018-05-16T09:43:29.425Z,1006.83
2018-05-16T09:45:44.078Z,1006.84
2018-05-16T09:46:24.466Z,1006.84
2018-05-16T09:47:05.086Z,1006.84
2018-05-16T09:47:45.540Z,1006.86
2018-05-16T09:48:27.082Z,1006.88
2018-05-16T09:49:11.677Z,1006.83
2018-05-16T09:49:51.682Z,1006.89
2018-05-16T09:50:32.540Z,1006.84
2018-05-16T09:51:14.786Z,1006.85
2018-05-16T09:51:55.633Z,1006.81
2018-05-16T09:54:16.968Z,1006.79
2018-05-16T09:57:34.687Z,1006.77
2018-05-16T09:58:15.261Z,1006.8
2018-05-16T09:58:56.004Z,1006.79
2018-05-16T09:59:37.094Z,1006.79
2018-05-16T10:00:17.793Z,1006.78
2018-05-16T10:00:59.062Z,1006.8
2018-05-16T10:01:39.237Z,1006.82
2018-05-16T10:02:20.627Z,1006.86
2018-05-16T10:03:00.492Z,1006.82
2018-05-16T10:03:41.005Z,1006.84
2018-05-16T10:42:26.469Z,1006.89
2018-05-16T10:45:58.156Z,1006.9
2018-05-16T10:46:38.826Z,1006.98
2018-05-16T10:47:19.932Z,1006.93
2018-05-16T10:48:01.755Z,1006.94
2018-05-16T10:48:43.192Z,1006.99
2018-05-16T10:49:25.371Z,1006.95
2018-05-16T10:50:05.942Z,1006.95
2018-05-16T10:50:47.092Z,1006.94
2018-05-16T10:51:29.617Z,1006.92
2018-05-16T10:52:11.229Z,1006.88
2018-05-16T10:52:52.629Z,1006.9
2018-05-16T10:53:33.202Z,1006.91
2018-05-16T10:54:13.872Z,1006.93
2018-05-16T10:54:55.607Z,1006.94
2018-05-16T10:55:36.604Z,1006.86
2018-05-16T10:56:17.840Z,1006.89
2018-05-16T10:56:58.615Z,1006.83
2018-05-16T10:57:39.373Z,1006.87
2018-05-16T10:58:20.758Z,1006.87
2018-05-16T10:59:08.310Z,1006.87
2018-05-16T10:59:49.290Z,1006.85
2018-05-16T11:00:30.821Z,1006.89
2018-05-16T11:01:11.429Z,1006.91
2018-05-16T11:01:52.116Z,1006.93
2018-05-16T11:02:33.407Z,1006.92
2018-05-16T11:03:13.977Z,1006.93
2018-05-16T11:03:55.239Z,1006.93
2018-05-16T11:04:38.999Z,1006.95
2018-05-16T11:05:20.187Z,1006.96
2018-05-16T11:06:01.121Z,1006.91
2018-05-16T11:06:41.810Z,1006.91
2018-05-16T11:07:23.209Z,1006.88
2018-05-16T11:08:04.432Z,1006.97
2018-05-16T11:08:46.125Z,1006.92
2018-05-16T11:09:26.715Z,1006.9
2018-05-16T11:10:08.294Z,1006.92
2018-05-16T11:10:49.672Z,1006.93
2018-05-16T11:11:30.733Z,1006.94
2018-05-16T11:12:11.161Z,1007
2018-05-16T11:12:51.810Z,1007.04
2018-05-16T11:13:32.524Z,1007
2018-05-16T11:14:13.751Z,1007.05
2018-05-16T11:14:54.532Z,1007.06
2018-05-16T11:15:35.233Z,1007.03
2018-05-16T11:16:15.828Z,1007.09
2018-05-16T11:16:59.477Z,1007.12
2018-05-16T11:17:39.748Z,1007.11
2018-05-16T11:18:20.333Z,1007.1
2018-05-16T11:19:00.971Z,1007.07
2018-05-16T11:19:41.762Z,1007.08
2018-05-16T11:20:22.636Z,1007.1
2018-05-16T11:21:02.668Z,1007.14
2018-05-16T11:21:43.656Z,1007.06
2018-05-16T11:22:25.192Z,1007.07
2018-05-16T11:23:05.593Z,1007.09
2018-05-16T11:23:46.103Z,1007.11
2018-05-16T11:24:27.129Z,1007.09
2018-05-16T11:25:07.271Z,1007.09
2018-05-16T11:25:48.631Z,1007.11
2018-05-16T11:26:28.798Z,1007.11
2018-05-16T11:27:10.735Z,1007.14
2018-05-16T11:27:51.480Z,1007.15
2018-05-16T11:28:32.640Z,1007.1
2018-05-16T11:29:13.159Z,1007.13
2018-05-16T11:29:55.756Z,1007.09
2018-05-16T11:30:38.117Z,1007.11
2018-05-16T11:31:18.005Z,1007.12
2018-05-16T11:31:58.524Z,1007.1
2018-05-16T11:32:39.404Z,1007.1
2018-05-16T11:33:19.825Z,1007.07
2018-05-16T11:34:00.399Z,1007.09
2018-05-16T11:34:44.785Z,1007.09
2018-05-16T11:35:25.705Z,1007.07
2018-05-16T11:36:06.231Z,1007.09
2018-05-16T11:36:47.406Z,1007.06
2018-05-16T11:37:28.611Z,1007.09
2018-05-16T11:38:08.802Z,1007.13
2018-05-16T11:38:51.220Z,1007.09
2018-05-16T11:39:30.530Z,1007.09
2018-05-16T11:40:11.300Z,1007.08
2018-05-16T11:40:53.063Z,1006.99
2018-05-16T11:41:34.775Z,1007.04
2018-05-16T11:42:18.693Z,1007.03
2018-05-16T11:42:58.766Z,1007
2018-05-16T11:43:40.587Z,1007.01
2018-05-16T11:44:21.375Z,1007.01
2018-05-16T11:45:02.125Z,1007.07
2018-05-16T11:45:44.223Z,1007.02
2018-05-16T11:46:25.329Z,1007.08
2018-05-16T11:48:53.936Z,1007.04
2018-05-16T11:49:34.836Z,1007.08
2018-05-16T11:50:15.496Z,1007.07
2018-05-16T11:50:56.967Z,1007.06
2018-05-16T11:51:40.168Z,1007.07
2018-05-16T11:52:27.175Z,1007.04
2018-05-16T11:53:11.757Z,1007.05
2018-05-16T11:53:51.959Z,1007.08
2018-05-16T11:54:33.058Z,1007.09
2018-05-16T11:55:14.281Z,1007.09
2018-05-16T11:55:54.759Z,1007.07
2018-05-16T11:56:36.011Z,1007.12